createdAt,value
2019-05-06T00:00:24.761Z,15.30
2019-05-06T00:01:24.680Z,14.50
2019-05-06T00:02:24.650Z,14.00
2019-05-06T00:03:24.884Z,16.30
2019-05-06T00:04:24.841Z,15.50
2019-05-06T00:05:25.359Z,12.90
2019-05-06T00:06:24.446Z,12.50
2019-05-06T00:07:24.398Z,14.60
2019-05-06T00:08:24.398Z,14.80
2019-05-06T00:09:24.291Z,11.70
2019-05-06T00:10:24.579Z,14.20
2019-05-06T00:11:24.213Z,14.10
2019-05-06T00:12:24.162Z,14.00
2019-05-06T00:13:24.293Z,15.70
2019-05-06T00:14:24.073Z,15.40
2019-05-06T00:15:24.020Z,17.00
2019-05-06T00:16:23.979Z,13.10
2019-05-06T00:17:24.035Z,11.60
2019-05-06T00:18:24.505Z,14.40
2019-05-06T00:19:24.654Z,14.90
2019-05-06T00:20:24.409Z,19.00
2019-05-06T00:21:24.363Z,17.20
2019-05-06T00:22:23.843Z,15.50
2019-05-06T00:23:24.937Z,16.20
2019-05-06T00:24:23.964Z,13.80
2019-05-06T00:25:24.269Z,14.70
2019-05-06T00:26:24.312Z,12.60
2019-05-06T00:27:24.694Z,15.10
2019-05-06T00:28:24.456Z,14.60
2019-05-06T00:29:24.185Z,18.10
2019-05-06T00:30:24.303Z,16.10
2019-05-06T00:31:24.042Z,15.90
2019-05-06T00:32:24.326Z,15.30
2019-05-06T00:33:24.275Z,19.30
2019-05-06T00:34:24.603Z,16.50
2019-05-06T00:35:23.437Z,16.10
2019-05-06T00:36:23.714Z,15.90
2019-05-06T00:37:24.078Z,16.60
2019-05-06T00:38:24.629Z,16.80
2019-05-06T00:39:24.351Z,16.10
2019-05-06T00:40:24.408Z,17.20
2019-05-06T00:41:24.717Z,15.00
2019-05-06T00:42:24.583Z,17.30
2019-05-06T00:43:23.588Z,18.20
2019-05-06T00:44:23.900Z,17.60
2019-05-06T00:45:24.384Z,16.60
2019-05-06T00:46:24.274Z,16.80
2019-05-06T00:47:24.603Z,18.90
2019-05-06T00:48:24.304Z,18.80
2019-05-06T00:49:23.842Z,15.70
2019-05-06T00:50:23.942Z,17.00
2019-05-06T00:51:24.154Z,17.10
2019-05-06T00:52:23.888Z,16.40
2019-05-06T00:53:23.836Z,17.00
2019-05-06T00:54:22.236Z,17.60
2019-05-06T00:55:24.053Z,16.50
2019-05-06T00:56:24.233Z,17.60
2019-05-06T00:57:23.401Z,18.00
2019-05-06T00:58:23.869Z,17.20
2019-05-06T00:59:23.845Z,18.80
2019-05-06T01:00:24.258Z,18.20
2019-05-06T01:01:26.969Z,18.50
2019-05-06T01:02:23.426Z,16.40
2019-05-06T01:03:23.821Z,20.30
2019-05-06T01:04:21.786Z,17.40
2019-05-06T01:05:21.747Z,18.10
2019-05-06T01:06:21.727Z,19.30
2019-05-06T01:07:23.599Z,15.80
2019-05-06T01:08:23.787Z,16.80
2019-05-06T01:09:23.424Z,18.80
2019-05-06T01:10:23.696Z,19.70
2019-05-06T01:11:21.473Z,19.50
2019-05-06T01:12:21.424Z,21.30
2019-05-06T01:13:21.382Z,18.90
2019-05-06T01:14:23.431Z,18.60
2019-05-06T01:15:21.281Z,19.30
2019-05-06T01:16:21.291Z,19.30
2019-05-06T01:17:21.234Z,19.30
2019-05-06T01:18:21.146Z,18.80
2019-05-06T01:19:21.103Z,16.10
2019-05-06T01:20:21.056Z,17.40
2019-05-06T01:21:21.011Z,18.80
2019-05-06T01:22:20.981Z,21.60
2019-05-06T01:23:20.938Z,21.60
2019-05-06T01:24:20.881Z,21.10
2019-05-06T01:25:20.819Z,23.80
2019-05-06T01:26:20.786Z,24.90
2019-05-06T01:27:20.772Z,23.00
2019-05-06T01:28:20.687Z,24.80
2019-05-06T01:29:20.648Z,24.60
2019-05-06T01:30:20.596Z,22.30
2019-05-06T01:31:20.549Z,23.70
2019-05-06T01:32:20.515Z,22.60
2019-05-06T01:33:20.478Z,24.70
2019-05-06T01:34:20.420Z,22.60
2019-05-06T01:35:20.357Z,25.80
2019-05-06T01:36:20.333Z,25.90
2019-05-06T01:37:20.287Z,25.30
2019-05-06T01:38:20.260Z,25.30
2019-05-06T01:39:20.186Z,25.80
2019-05-06T01:40:20.165Z,23.40
2019-05-06T01:41:20.103Z,22.20
2019-05-06T01:42:20.068Z,20.50
2019-05-06T01:43:20.026Z,21.00
2019-05-06T01:44:19.980Z,23.10
2019-05-06T01:45:19.979Z,20.60
2019-05-06T01:46:19.877Z,22.40
2019-05-06T01:47:19.833Z,22.30
2019-05-06T01:48:19.809Z,24.80
2019-05-06T01:49:19.730Z,26.80
2019-05-06T01:50:19.695Z,29.10
2019-05-06T01:51:19.664Z,28.50
2019-05-06T01:52:19.630Z,23.80
2019-05-06T01:53:19.567Z,23.50
2019-05-06T01:54:19.523Z,23.80
2019-05-06T01:55:19.485Z,24.80
2019-05-06T01:56:19.443Z,24.70
2019-05-06T01:57:19.366Z,22.10
2019-05-06T01:58:19.318Z,24.40
2019-05-06T01:59:19.280Z,17.80
2019-05-06T02:00:19.263Z,22.90
2019-05-06T02:01:19.168Z,22.80
2019-05-06T02:02:19.163Z,22.90
2019-05-06T02:03:19.099Z,21.90
2019-05-06T02:04:19.058Z,22.60
2019-05-06T02:05:19.011Z,21.80
2019-05-06T02:06:18.988Z,20.20
2019-05-06T02:07:18.918Z,22.90
2019-05-06T02:08:18.881Z,19.00
2019-05-06T02:09:18.834Z,23.50
2019-05-06T02:10:18.824Z,21.40
2019-05-06T02:11:18.752Z,20.10
2019-05-06T02:12:18.688Z,23.10
2019-05-06T02:13:18.634Z,22.70
2019-05-06T02:14:18.588Z,22.00
2019-05-06T02:15:18.546Z,20.50
2019-05-06T02:16:18.514Z,21.50
2019-05-06T02:17:18.445Z,22.40
2019-05-06T02:18:18.422Z,24.00
2019-05-06T02:19:18.376Z,26.30
2019-05-06T02:20:18.322Z,23.90
2019-05-06T02:21:18.273Z,22.50
2019-05-06T02:22:18.261Z,23.80
2019-05-06T02:23:18.210Z,24.20
2019-05-06T02:24:18.145Z,28.10
2019-05-06T02:25:18.110Z,24.30
2019-05-06T02:26:18.056Z,28.20
2019-05-06T02:27:18.001Z,27.30
2019-05-06T02:28:17.975Z,28.40
2019-05-06T02:29:17.903Z,25.60
2019-05-06T02:30:17.866Z,25.80
2019-05-06T02:31:17.814Z,23.60
2019-05-06T02:32:25.980Z,22.40
2019-05-06T02:33:17.768Z,22.00
2019-05-06T02:34:17.686Z,23.60
2019-05-06T02:35:17.632Z,21.10
2019-05-06T02:36:17.597Z,22.50
2019-05-06T02:37:17.555Z,25.50
2019-05-06T02:38:17.537Z,21.50
2019-05-06T02:39:17.499Z,24.80
2019-05-06T02:40:17.431Z,24.60
2019-05-06T02:41:17.359Z,24.90
2019-05-06T02:42:17.315Z,25.40
2019-05-06T02:43:17.262Z,27.60
2019-05-06T02:44:17.253Z,23.20
2019-05-06T02:45:17.179Z,24.60
2019-05-06T02:46:17.136Z,25.80
2019-05-06T02:47:17.083Z,30.70
2019-05-06T02:48:17.053Z,28.40
2019-05-06T02:49:17.021Z,28.50
2019-05-06T02:50:16.965Z,27.90
2019-05-06T02:51:16.931Z,28.30
2019-05-06T02:52:16.871Z,26.40
2019-05-06T02:53:16.819Z,27.00
2019-05-06T02:54:16.756Z,27.60
2019-05-06T02:55:16.715Z,26.90
2019-05-06T02:56:16.676Z,27.60
2019-05-06T02:57:16.652Z,26.80
2019-05-06T02:58:16.610Z,31.30
2019-05-06T02:59:16.548Z,28.80
2019-05-06T03:00:16.521Z,27.70
2019-05-06T03:01:16.453Z,28.00
2019-05-06T03:02:34.350Z,27.40
2019-05-06T03:03:16.400Z,26.00
2019-05-06T03:04:16.303Z,30.10
2019-05-06T03:05:16.261Z,30.20
2019-05-06T03:06:16.224Z,27.00
2019-05-06T03:07:16.167Z,28.70
2019-05-06T03:08:16.147Z,27.20
2019-05-06T03:09:16.094Z,32.30
2019-05-06T03:10:16.035Z,37.60
2019-05-06T03:11:16.008Z,36.20
2019-05-06T03:12:15.953Z,30.70
2019-05-06T03:13:15.917Z,34.20
2019-05-06T03:14:15.885Z,34.60
2019-05-06T03:15:16.748Z,37.00
2019-05-06T03:16:15.781Z,40.80
2019-05-06T03:17:15.709Z,34.80
2019-05-06T03:18:15.695Z,32.80
2019-05-06T03:19:15.663Z,37.00
2019-05-06T03:20:15.596Z,33.30
2019-05-06T03:21:15.518Z,28.10
2019-05-06T03:22:15.490Z,29.70
2019-05-06T03:23:15.454Z,32.80
2019-05-06T03:24:15.413Z,38.70
2019-05-06T03:25:15.341Z,34.40
2019-05-06T03:26:15.300Z,36.60
2019-05-06T03:27:15.265Z,44.50
2019-05-06T03:28:15.217Z,42.00
2019-05-06T03:29:15.184Z,39.00
2019-05-06T03:30:16.360Z,37.90
2019-05-06T03:31:16.748Z,33.90
2019-05-06T03:32:21.385Z,36.00
2019-05-06T03:33:37.100Z,36.80
2019-05-06T03:34:36.525Z,33.60
2019-05-06T03:35:33.697Z,40.10
2019-05-06T03:36:23.879Z,39.90
2019-05-06T03:37:16.782Z,46.50
2019-05-06T03:38:14.745Z,47.40
2019-05-06T03:39:14.703Z,46.70
2019-05-06T03:40:14.685Z,37.70
2019-05-06T03:41:14.612Z,44.70
2019-05-06T03:42:16.669Z,37.40
2019-05-06T03:43:16.140Z,38.80
2019-05-06T03:44:16.705Z,37.00
2019-05-06T03:45:14.431Z,35.70
2019-05-06T03:46:14.485Z,38.70
2019-05-06T03:47:14.343Z,33.90
2019-05-06T03:48:14.310Z,36.80
2019-05-06T03:49:14.252Z,35.80
2019-05-06T03:50:14.200Z,31.80
2019-05-06T03:51:14.155Z,31.50
2019-05-06T03:52:14.114Z,36.80
2019-05-06T03:53:14.191Z,40.60
2019-05-06T03:54:14.038Z,36.50
2019-05-06T03:55:14.082Z,35.10
2019-05-06T03:56:18.898Z,36.00
2019-05-06T03:57:13.931Z,35.20
2019-05-06T03:58:13.859Z,38.50
2019-05-06T03:59:13.803Z,46.10
2019-05-06T04:00:15.967Z,48.50
2019-05-06T04:01:13.708Z,47.90
2019-05-06T04:02:13.674Z,46.50
2019-05-06T04:03:14.171Z,38.90
2019-05-06T04:04:13.577Z,36.40
2019-05-06T04:05:13.687Z,38.20
2019-05-06T04:06:14.010Z,35.80
2019-05-06T04:07:14.027Z,32.20
2019-05-06T04:08:13.375Z,34.60
2019-05-06T04:09:13.488Z,33.40
2019-05-06T04:10:13.782Z,33.40
2019-05-06T04:11:13.714Z,33.80
2019-05-06T04:12:13.196Z,33.30
2019-05-06T04:13:13.578Z,32.60
2019-05-06T04:14:13.902Z,34.20
2019-05-06T04:15:14.212Z,31.80
2019-05-06T04:16:13.838Z,42.70
2019-05-06T04:17:13.248Z,34.30
2019-05-06T04:18:12.930Z,40.20
2019-05-06T04:19:13.179Z,42.20
2019-05-06T04:20:12.887Z,41.10
2019-05-06T04:21:13.669Z,44.00
2019-05-06T04:22:12.976Z,44.20
2019-05-06T04:23:13.355Z,44.30
2019-05-06T04:24:13.373Z,41.90
2019-05-06T04:25:13.959Z,43.20
2019-05-06T04:26:13.355Z,44.30
2019-05-06T04:27:13.569Z,44.10
2019-05-06T04:28:12.948Z,38.20
2019-05-06T04:29:13.071Z,37.20
2019-05-06T04:30:13.486Z,33.60
2019-05-06T04:31:13.277Z,37.20
2019-05-06T04:32:13.805Z,34.20
2019-05-06T04:33:16.927Z,29.70
2019-05-06T04:34:17.976Z,28.90
2019-05-06T04:35:13.488Z,31.50
2019-05-06T04:36:13.177Z,33.50
2019-05-06T04:37:14.446Z,33.30
2019-05-06T04:38:13.919Z,30.00
2019-05-06T04:39:13.153Z,28.40
2019-05-06T04:40:12.922Z,27.80
2019-05-06T04:41:13.623Z,29.30
2019-05-06T04:42:13.758Z,29.20
2019-05-06T04:43:13.450Z,29.00
2019-05-06T04:44:13.891Z,27.40
2019-05-06T04:45:13.577Z,28.40
2019-05-06T04:46:16.504Z,27.00
2019-05-06T04:47:14.672Z,28.90
2019-05-06T04:48:14.392Z,29.70
2019-05-06T04:49:14.880Z,34.70
2019-05-06T04:50:13.167Z,30.90
2019-05-06T04:51:13.662Z,33.10
2019-05-06T04:52:13.886Z,32.70
2019-05-06T04:53:13.469Z,32.30
2019-05-06T04:54:13.493Z,29.10
2019-05-06T04:55:13.964Z,30.50
2019-05-06T04:56:14.108Z,28.30
2019-05-06T04:57:12.838Z,28.90
2019-05-06T04:58:13.590Z,32.80
2019-05-06T04:59:13.736Z,27.70
2019-05-06T05:00:12.975Z,29.30
2019-05-06T05:01:14.940Z,27.80
2019-05-06T05:02:13.311Z,27.10
2019-05-06T05:03:13.683Z,24.70
2019-05-06T05:04:24.448Z,23.70
2019-05-06T05:05:13.621Z,27.70
2019-05-06T05:06:13.440Z,28.90
2019-05-06T05:07:12.745Z,24.50
2019-05-06T05:08:13.151Z,25.50
2019-05-06T05:09:14.526Z,27.20
2019-05-06T05:10:12.485Z,26.80
2019-05-06T05:11:12.770Z,26.40
2019-05-06T05:12:13.164Z,25.40
2019-05-06T05:13:12.518Z,26.70
2019-05-06T05:14:13.200Z,25.30
2019-05-06T05:15:11.822Z,23.20
2019-05-06T05:16:12.711Z,24.20
2019-05-06T05:17:10.263Z,23.90
2019-05-06T05:18:10.216Z,22.80
2019-05-06T05:19:12.035Z,22.00
2019-05-06T05:20:10.139Z,23.80
2019-05-06T05:21:11.859Z,23.40
2019-05-06T05:22:10.035Z,22.20
2019-05-06T05:23:11.840Z,22.90
2019-05-06T05:24:11.942Z,21.20
2019-05-06T05:25:12.056Z,24.60
2019-05-06T05:26:11.979Z,22.80
2019-05-06T05:27:09.805Z,23.70
2019-05-06T05:28:09.785Z,23.20
2019-05-06T05:29:12.205Z,23.10
2019-05-06T05:30:09.687Z,22.80
2019-05-06T05:31:09.630Z,21.20
2019-05-06T05:32:09.585Z,24.40
2019-05-06T05:33:09.571Z,21.10
2019-05-06T05:34:09.491Z,23.30
2019-05-06T05:35:09.443Z,20.70
2019-05-06T05:36:09.415Z,23.70
2019-05-06T05:37:09.386Z,19.70
2019-05-06T05:38:09.343Z,23.30
2019-05-06T05:39:09.291Z,20.90
2019-05-06T05:40:09.221Z,22.00
2019-05-06T05:41:09.191Z,21.50
2019-05-06T05:42:09.141Z,21.60
2019-05-06T05:43:09.091Z,20.40
2019-05-06T05:44:09.073Z,20.70
2019-05-06T05:45:09.006Z,23.90
2019-05-06T05:46:08.959Z,20.70
2019-05-06T05:47:08.931Z,20.20
2019-05-06T05:48:08.876Z,20.30
2019-05-06T05:49:08.850Z,21.60
2019-05-06T05:50:08.816Z,21.00
2019-05-06T05:51:08.780Z,20.00
2019-05-06T05:52:08.705Z,18.90
2019-05-06T05:53:08.683Z,20.20
2019-05-06T05:54:08.603Z,20.00
2019-05-06T05:55:08.574Z,20.40
2019-05-06T05:56:08.521Z,18.30
2019-05-06T05:57:08.484Z,18.00
2019-05-06T05:58:08.445Z,16.50
2019-05-06T05:59:08.408Z,18.70
2019-05-06T06:00:08.348Z,16.40
2019-05-06T06:01:08.338Z,18.80
2019-05-06T06:02:08.264Z,19.70
2019-05-06T06:03:08.220Z,17.10
2019-05-06T06:04:08.215Z,15.70
2019-05-06T06:05:08.131Z,17.00
2019-05-06T06:06:08.101Z,15.10
2019-05-06T06:07:08.050Z,15.90
2019-05-06T06:08:08.016Z,18.20
2019-05-06T06:09:07.961Z,17.70
2019-05-06T06:10:07.958Z,17.90
2019-05-06T06:11:07.852Z,16.60
2019-05-06T06:12:07.822Z,18.40
2019-05-06T06:13:07.787Z,17.20
2019-05-06T06:14:07.748Z,16.20
2019-05-06T06:15:07.729Z,14.40
2019-05-06T06:16:07.665Z,17.40
2019-05-06T06:17:07.610Z,15.60
2019-05-06T06:18:07.641Z,16.20
2019-05-06T06:19:07.543Z,18.60
2019-05-06T06:20:07.503Z,17.80
2019-05-06T06:21:17.857Z,17.90
2019-05-06T06:22:07.402Z,15.60
2019-05-06T06:23:07.356Z,16.80
2019-05-06T06:24:07.313Z,17.40
2019-05-06T06:25:07.322Z,18.60
2019-05-06T06:26:07.249Z,20.20
2019-05-06T06:27:07.192Z,22.60
2019-05-06T06:28:07.138Z,18.40
2019-05-06T06:29:07.092Z,17.30
2019-05-06T06:30:07.043Z,17.80
2019-05-06T06:31:07.032Z,17.90
2019-05-06T06:32:06.982Z,18.40
2019-05-06T06:33:06.942Z,18.20
2019-05-06T06:34:06.900Z,17.80
2019-05-06T06:35:11.137Z,16.70
2019-05-06T06:36:06.819Z,18.20
2019-05-06T06:37:06.739Z,20.80
2019-05-06T06:38:06.722Z,18.60
2019-05-06T06:39:06.653Z,19.20
2019-05-06T06:40:06.611Z,19.00
2019-05-06T06:41:06.578Z,18.70
2019-05-06T06:42:06.533Z,16.50
2019-05-06T06:43:06.488Z,17.00
2019-05-06T06:44:06.466Z,21.20
2019-05-06T06:45:06.402Z,19.30
2019-05-06T06:46:09.421Z,18.90
2019-05-06T06:47:06.321Z,17.50
2019-05-06T06:48:06.346Z,20.20
2019-05-06T06:49:06.243Z,21.60
2019-05-06T06:50:06.181Z,19.80
2019-05-06T06:51:06.139Z,19.90
2019-05-06T06:52:11.300Z,18.40
2019-05-06T06:53:06.104Z,18.60
2019-05-06T06:54:06.019Z,18.40
2019-05-06T06:55:06.003Z,19.00
2019-05-06T06:56:05.936Z,16.70
2019-05-06T06:57:09.152Z,18.00
2019-05-06T06:58:05.844Z,19.20
2019-05-06T06:59:05.835Z,16.40
2019-05-06T07:00:05.768Z,20.20
2019-05-06T07:01:05.717Z,17.60
2019-05-06T07:02:05.675Z,17.70
2019-05-06T07:03:06.103Z,19.80
2019-05-06T07:04:10.551Z,18.80
2019-05-06T07:05:05.576Z,18.80
2019-05-06T07:06:05.514Z,20.00
2019-05-06T07:07:05.613Z,21.00
2019-05-06T07:08:05.433Z,19.60
2019-05-06T07:09:05.382Z,17.30
2019-05-06T07:10:05.366Z,16.90
2019-05-06T07:11:05.298Z,17.60
2019-05-06T07:12:05.326Z,20.40
2019-05-06T07:13:05.220Z,18.10
2019-05-06T07:14:05.178Z,17.30
2019-05-06T07:15:05.130Z,18.40
2019-05-06T07:16:05.121Z,18.80
2019-05-06T07:17:05.054Z,17.70
2019-05-06T07:18:05.015Z,19.20
2019-05-06T07:19:04.976Z,19.80
2019-05-06T07:20:04.954Z,20.50
2019-05-06T07:21:06.237Z,18.20
2019-05-06T07:22:06.815Z,21.10
2019-05-06T07:23:04.794Z,18.20
2019-05-06T07:24:04.756Z,19.50
2019-05-06T07:25:04.719Z,16.60
2019-05-06T07:26:04.698Z,17.20
2019-05-06T07:27:04.637Z,16.80
2019-05-06T07:28:04.594Z,16.40
2019-05-06T07:29:14.174Z,17.50
2019-05-06T07:30:04.502Z,16.70
2019-05-06T07:31:17.448Z,18.00
2019-05-06T07:32:04.424Z,16.60
2019-05-06T07:33:04.386Z,18.40
2019-05-06T07:34:04.334Z,20.00
2019-05-06T07:35:06.257Z,17.70
2019-05-06T07:36:04.257Z,20.60
2019-05-06T07:37:04.240Z,19.10
2019-05-06T07:38:04.185Z,21.00
2019-05-06T07:39:04.443Z,17.70
2019-05-06T07:40:04.096Z,18.00
2019-05-06T07:41:04.924Z,20.20
2019-05-06T07:42:04.035Z,17.30
2019-05-06T07:43:03.963Z,19.90
2019-05-06T07:44:03.929Z,17.90
2019-05-06T07:45:06.619Z,18.10
2019-05-06T07:46:03.844Z,18.50
2019-05-06T07:47:03.877Z,20.50
2019-05-06T07:48:03.804Z,18.40
2019-05-06T07:49:03.726Z,17.50
2019-05-06T07:50:03.682Z,16.90
2019-05-06T07:51:03.644Z,16.90
2019-05-06T07:52:03.602Z,17.30
2019-05-06T07:53:03.585Z,17.60
2019-05-06T07:54:03.511Z,17.30
2019-05-06T07:55:03.474Z,16.80
2019-05-06T07:56:03.737Z,15.90
2019-05-06T07:57:03.398Z,16.40
2019-05-06T07:58:03.358Z,16.70
2019-05-06T07:59:03.342Z,17.50
2019-05-06T08:01:34.785Z,14.30
2019-05-06T08:02:34.721Z,15.30
2019-05-06T08:03:34.681Z,17.70
2019-05-06T08:04:34.688Z,16.20
2019-05-06T08:05:34.620Z,17.20
2019-05-06T08:06:34.763Z,13.60
2019-05-06T08:07:34.527Z,14.50
2019-05-06T08:08:34.486Z,13.20
2019-05-06T08:09:34.444Z,12.40
2019-05-06T08:10:34.447Z,11.80
2019-05-06T08:11:34.373Z,12.40
2019-05-06T08:12:34.332Z,12.60
2019-05-06T08:13:34.288Z,12.60
2019-05-06T08:14:34.255Z,13.40
2019-05-06T08:15:34.220Z,13.40
2019-05-06T08:16:34.212Z,12.10
2019-05-06T08:17:34.145Z,12.30
2019-05-06T08:18:34.110Z,11.70
2019-05-06T08:19:34.098Z,11.10
2019-05-06T08:20:34.055Z,12.00
2019-05-06T08:21:33.994Z,13.50
2019-05-06T08:22:33.961Z,10.30
2019-05-06T08:23:33.921Z,12.10
2019-05-06T08:24:33.887Z,11.50
2019-05-06T08:25:33.861Z,9.80
2019-05-06T08:26:33.834Z,9.90
2019-05-06T08:27:33.779Z,12.40
2019-05-06T08:28:40.691Z,10.70
2019-05-06T08:29:33.714Z,9.80
2019-05-06T08:30:33.716Z,11.90
2019-05-06T08:31:33.668Z,9.40
2019-05-06T08:32:33.609Z,9.90
2019-05-06T08:33:33.570Z,10.80
2019-05-06T08:34:34.171Z,9.70
2019-05-06T08:35:33.517Z,7.80
2019-05-06T08:36:33.477Z,10.40
2019-05-06T08:37:33.462Z,9.40
2019-05-06T08:38:33.403Z,8.70
2019-05-06T08:39:33.376Z,11.80
2019-05-06T08:40:33.333Z,10.20
2019-05-06T08:41:33.379Z,9.80
2019-05-06T08:42:33.292Z,9.70
2019-05-06T08:43:33.235Z,8.50
2019-05-06T08:44:33.197Z,10.20
2019-05-06T08:45:33.167Z,9.50
2019-05-06T08:46:33.132Z,8.50
2019-05-06T08:47:33.120Z,9.50
2019-05-06T08:48:33.069Z,8.40
2019-05-06T08:49:33.036Z,9.60
2019-05-06T08:50:32.999Z,8.50
2019-05-06T08:51:33.269Z,9.10
2019-05-06T08:52:32.922Z,8.90
2019-05-06T08:53:33.016Z,9.70
2019-05-06T08:54:32.862Z,7.90
2019-05-06T08:55:32.824Z,8.90
2019-05-06T08:56:32.797Z,8.40
2019-05-06T08:57:32.785Z,9.80
2019-05-06T08:58:32.721Z,10.10
2019-05-06T08:59:32.684Z,8.40
2019-05-06T09:00:32.683Z,8.00
2019-05-06T09:01:32.795Z,7.40
2019-05-06T09:02:32.621Z,7.50
2019-05-06T09:03:32.800Z,7.90
2019-05-06T09:04:32.517Z,7.80
2019-05-06T09:05:33.130Z,8.90
2019-05-06T09:06:34.378Z,9.20
2019-05-06T09:07:32.421Z,7.40
2019-05-06T09:08:32.507Z,8.00
2019-05-06T09:09:32.656Z,7.30
2019-05-06T09:10:32.533Z,8.10
2019-05-06T09:11:32.352Z,8.60
2019-05-06T09:12:32.913Z,6.80
2019-05-06T09:13:32.697Z,12.10
2019-05-06T09:14:32.818Z,9.60
2019-05-06T09:15:32.774Z,8.00
2019-05-06T09:16:33.075Z,9.20
2019-05-06T09:17:33.045Z,9.30
2019-05-06T09:18:32.935Z,9.10
2019-05-06T09:19:33.205Z,8.80
2019-05-06T09:20:32.596Z,9.20
2019-05-06T09:21:33.528Z,10.20
2019-05-06T09:22:32.576Z,11.00
2019-05-06T09:23:32.722Z,9.20
2019-05-06T09:24:32.225Z,12.00
2019-05-06T09:25:32.334Z,9.80
2019-05-06T09:26:32.405Z,11.80
2019-05-06T09:27:32.739Z,9.50
2019-05-06T09:28:33.832Z,9.60
2019-05-06T09:29:32.537Z,11.20
2019-05-06T09:30:33.032Z,11.60
2019-05-06T09:31:32.162Z,8.60
2019-05-06T09:32:36.049Z,10.40
2019-05-06T09:33:33.136Z,9.10
2019-05-06T09:34:32.598Z,9.00
2019-05-06T09:35:32.925Z,9.60
2019-05-06T09:36:41.290Z,9.80
2019-05-06T09:37:32.489Z,9.70
2019-05-06T09:38:32.153Z,10.80
2019-05-06T09:39:32.243Z,10.00
2019-05-06T09:40:31.881Z,10.00
2019-05-06T09:41:32.476Z,11.20
2019-05-06T09:42:32.182Z,9.40
2019-05-06T09:43:32.785Z,8.60
2019-05-06T09:44:33.046Z,11.40
2019-05-06T09:45:32.989Z,11.50
2019-05-06T09:46:32.196Z,9.80
2019-05-06T09:47:32.952Z,11.90
2019-05-06T09:48:33.042Z,11.20
2019-05-06T09:49:32.872Z,14.10
2019-05-06T09:50:32.349Z,11.90
2019-05-06T09:51:32.501Z,12.00
2019-05-06T09:52:33.107Z,11.20
2019-05-06T09:53:30.724Z,10.50
2019-05-06T09:54:32.165Z,11.70
2019-05-06T09:55:32.507Z,13.40
2019-05-06T09:56:30.602Z,14.00
2019-05-06T09:57:32.617Z,12.60
2019-05-06T09:58:32.472Z,12.50
2019-05-06T09:59:32.183Z,14.80
2019-05-06T10:00:32.770Z,11.70
2019-05-06T10:01:32.963Z,12.00
2019-05-06T10:02:32.553Z,13.80
2019-05-06T10:03:32.204Z,14.20
2019-05-06T10:04:32.383Z,13.40
2019-05-06T10:05:30.306Z,13.80
2019-05-06T10:06:32.372Z,14.20
2019-05-06T10:07:30.199Z,13.10
2019-05-06T10:08:32.292Z,14.90
2019-05-06T10:09:32.468Z,13.00
2019-05-06T10:10:30.082Z,14.00
2019-05-06T10:11:30.070Z,13.50
2019-05-06T10:12:30.018Z,12.80
2019-05-06T10:13:29.979Z,16.70
2019-05-06T10:14:32.069Z,14.80
2019-05-06T10:15:32.402Z,15.20
2019-05-06T10:16:29.865Z,15.10
2019-05-06T10:17:29.846Z,14.30
2019-05-06T10:18:29.793Z,13.90
2019-05-06T10:19:31.988Z,13.40
2019-05-06T10:20:29.709Z,12.80
2019-05-06T10:21:29.678Z,13.80
2019-05-06T10:22:29.659Z,15.50
2019-05-06T10:23:29.595Z,14.10
2019-05-06T10:24:29.566Z,14.00
2019-05-06T10:25:29.528Z,15.20
2019-05-06T10:26:29.490Z,15.40
2019-05-06T10:27:29.483Z,15.40
2019-05-06T10:28:29.409Z,14.20
2019-05-06T10:29:29.371Z,14.20
2019-05-06T10:30:29.337Z,14.30
2019-05-06T10:31:29.329Z,13.90
2019-05-06T10:32:29.263Z,14.00
2019-05-06T10:33:29.261Z,14.20
2019-05-06T10:34:29.187Z,15.00
2019-05-06T10:35:29.733Z,13.60
2019-05-06T10:36:29.114Z,16.60
2019-05-06T10:37:29.076Z,14.10
2019-05-06T10:38:29.036Z,15.50
2019-05-06T10:39:29.030Z,15.90
2019-05-06T10:40:28.959Z,17.20
2019-05-06T10:41:28.927Z,14.50
2019-05-06T10:42:28.888Z,14.60
2019-05-06T10:43:28.854Z,14.80
2019-05-06T10:44:28.812Z,15.50
2019-05-06T10:45:28.809Z,14.60
2019-05-06T10:46:28.737Z,16.10
2019-05-06T10:47:28.697Z,15.10
2019-05-06T10:48:28.655Z,14.90
2019-05-06T10:49:28.629Z,15.80
2019-05-06T10:50:28.588Z,14.90
2019-05-06T10:51:28.573Z,14.70
2019-05-06T10:52:28.508Z,14.60
2019-05-06T10:53:28.481Z,15.10
2019-05-06T10:54:28.429Z,16.50
2019-05-06T10:55:28.386Z,15.80
2019-05-06T10:56:28.395Z,15.40
2019-05-06T10:57:28.324Z,17.40
2019-05-06T10:58:28.277Z,15.30
2019-05-06T10:59:28.242Z,18.00
2019-05-06T11:00:28.198Z,15.50
2019-05-06T11:01:28.190Z,16.60
2019-05-06T11:02:28.125Z,15.20
2019-05-06T11:03:28.077Z,16.30
2019-05-06T11:04:28.045Z,17.60
2019-05-06T11:05:28.005Z,17.20
2019-05-06T11:06:27.962Z,15.20
2019-05-06T11:07:31.319Z,14.50
2019-05-06T11:08:27.881Z,15.10
2019-05-06T11:09:27.842Z,15.60
2019-05-06T11:10:31.237Z,15.40
2019-05-06T11:11:35.019Z,14.20
2019-05-06T11:12:27.719Z,14.00
2019-05-06T11:13:27.701Z,13.30
2019-05-06T11:14:27.650Z,13.60
2019-05-06T11:15:27.594Z,14.10
2019-05-06T11:16:27.559Z,14.40
2019-05-06T11:17:27.521Z,14.20
2019-05-06T11:18:27.506Z,12.40
2019-05-06T11:19:27.435Z,14.30
2019-05-06T11:20:27.389Z,14.40
2019-05-06T11:21:27.351Z,14.10
2019-05-06T11:22:27.315Z,14.80
2019-05-06T11:23:27.293Z,14.30
2019-05-06T11:24:27.235Z,14.90
2019-05-06T11:25:27.217Z,12.00
2019-05-06T11:26:27.146Z,12.00
2019-05-06T11:27:31.987Z,12.00
2019-05-06T11:28:27.095Z,13.10
2019-05-06T11:29:27.031Z,13.50
2019-05-06T11:30:26.990Z,12.60
2019-05-06T11:31:26.949Z,10.50
2019-05-06T11:32:26.901Z,12.40
2019-05-06T11:33:26.862Z,11.60
2019-05-06T11:34:26.849Z,10.30
2019-05-06T11:35:26.792Z,9.00
2019-05-06T11:36:26.769Z,11.50
2019-05-06T11:37:26.705Z,10.50
2019-05-06T11:38:26.666Z,12.20
2019-05-06T11:39:26.619Z,10.30
2019-05-06T11:40:26.589Z,10.70
2019-05-06T11:41:26.578Z,10.30
2019-05-06T11:42:32.071Z,10.10
2019-05-06T11:43:26.467Z,10.90
2019-05-06T11:44:26.423Z,11.50
2019-05-06T11:45:26.384Z,10.40
2019-05-06T11:46:26.376Z,11.90
2019-05-06T11:47:26.311Z,10.00
2019-05-06T11:48:26.262Z,12.80
2019-05-06T11:49:26.221Z,10.60
2019-05-06T11:50:26.181Z,10.80
2019-05-06T11:51:26.176Z,9.20
2019-05-06T11:52:26.116Z,9.30
2019-05-06T11:53:26.072Z,10.00
2019-05-06T11:54:26.026Z,12.20
2019-05-06T11:55:31.280Z,10.50
2019-05-06T11:56:25.949Z,8.50
2019-05-06T11:57:25.943Z,11.90
2019-05-06T11:58:25.880Z,11.80
2019-05-06T11:59:25.833Z,8.50
2019-05-06T12:00:25.788Z,9.10
2019-05-06T12:01:25.750Z,7.80
2019-05-06T12:02:25.714Z,10.20
2019-05-06T12:03:25.700Z,8.40
2019-05-06T12:04:25.643Z,8.00
2019-05-06T12:05:25.599Z,7.90
2019-05-06T12:06:25.565Z,9.50
2019-05-06T12:07:25.528Z,9.50
2019-05-06T12:08:25.501Z,9.90
2019-05-06T12:09:25.440Z,9.30
2019-05-06T12:10:25.406Z,7.70
2019-05-06T12:11:25.371Z,9.20
2019-05-06T12:12:25.325Z,9.90
2019-05-06T12:13:25.310Z,9.00
2019-05-06T12:14:25.243Z,10.60
2019-05-06T12:15:25.204Z,8.90
2019-05-06T12:16:26.334Z,8.40
2019-05-06T12:17:25.132Z,9.30
2019-05-06T12:18:25.109Z,7.70
2019-05-06T12:19:25.091Z,8.70
2019-05-06T12:20:25.009Z,7.80
2019-05-06T12:21:24.971Z,8.00
2019-05-06T12:22:24.931Z,7.90
2019-05-06T12:23:24.898Z,6.60
2019-05-06T12:24:24.892Z,9.40
2019-05-06T12:25:24.873Z,8.10
2019-05-06T12:26:24.782Z,7.40
2019-05-06T12:27:24.738Z,7.50
2019-05-06T12:28:24.703Z,9.00
2019-05-06T12:29:24.667Z,7.30
2019-05-06T12:30:24.659Z,7.00
2019-05-06T12:31:24.589Z,6.60
2019-05-06T12:32:24.547Z,8.10
2019-05-06T12:33:24.509Z,8.50
2019-05-06T12:34:24.468Z,8.00
2019-05-06T12:35:24.455Z,8.20
2019-05-06T12:36:24.424Z,7.80
2019-05-06T12:37:24.358Z,6.80
2019-05-06T12:38:30.312Z,8.20
2019-05-06T12:39:24.295Z,7.30
2019-05-06T12:40:24.245Z,7.40
2019-05-06T12:41:24.235Z,7.40
2019-05-06T12:42:24.163Z,7.20
2019-05-06T12:43:24.125Z,8.20
2019-05-06T12:44:24.080Z,8.30
2019-05-06T12:45:24.072Z,8.70
2019-05-06T12:46:24.022Z,8.80
2019-05-06T12:47:23.966Z,7.50
2019-05-06T12:48:23.935Z,9.30
2019-05-06T12:49:23.894Z,10.20
2019-05-06T12:50:23.857Z,9.80
2019-05-06T12:51:23.840Z,9.70
2019-05-06T12:52:23.775Z,10.50
2019-05-06T12:53:23.738Z,11.00
2019-05-06T12:54:23.697Z,9.80
2019-05-06T12:55:25.277Z,9.30
2019-05-06T12:56:23.668Z,10.60
2019-05-06T12:57:23.639Z,8.80